Time;durP1;ratioP1;P1;durP2;ratioP2;P2;SDS_P1;SDS_P2;PMS_P1;PMS_P2;Temp;Humidity;BMP_temperature;BMP_pressure;BME280_temperature;BME280_humidity;BME280_pressure;Samples;Min_cycle;Max_cycle;Signal;HPM_P1;HPM_P2
2022/01/20 00:00:18;;;;;;;;;27.25;22.75;;;;;8.15;88.02;102622.53;5053039;28;45738;-68
2022/01/20 00:02:46;;;;;;;;;25.25;24.25;;;;;8.06;87.93;102626.91;5055009;28;45615;-68
2022/01/20 00:05:36;;;;;;;;;25.75;23.00;;;;;7.97;88.17;102633.91;5054837;28;45966;-68
2022/01/20 00:27:07;;;;;;;;;24.00;18.25;;;;;7.41;89.12;102653.97;5091142;27;45490;-67
2022/01/20 00:29:48;;;;;;;;;30.50;25.25;;;;;7.36;88.79;102647.00;5096756;27;45537;-68
2022/01/20 00:32:14;;;;;;;;;32.50;24.75;;;;;7.30;89.25;102635.66;5092108;27;45276;-68
2022/01/20 00:35:07;;;;;;;;;26.00;23.00;;;;;7.24;89.17;102624.34;5096025;27;47546;-68
2022/01/20 00:37:30;;;;;;;;;25.50;19.25;;;;;7.22;89.24;102620.84;5097281;27;46013;-68
2022/01/20 00:39:57;;;;;;;;;31.75;22.50;;;;;7.15;89.19;102614.75;5096257;27;45676;-68
2022/01/20 00:42:23;;;;;;;;;27.75;21.25;;;;;7.11;89.26;102618.22;5101931;27;45344;-68
2022/01/20 00:44:49;;;;;;;;;27.50;23.00;;;;;7.10;89.52;102615.59;5100661;27;45576;-68
2022/01/20 00:47:15;;;;;;;;;26.25;19.50;;;;;7.02;89.26;102612.97;5095919;27;45397;-68
2022/01/20 00:49:42;;;;;;;;;26.25;21.50;;;;;6.96;89.67;102616.47;5097172;27;45360;-68
2022/01/20 00:52:08;;;;;;;;;26.50;22.50;;;;;6.94;89.63;102617.31;5096808;27;45641;-68
2022/01/20 00:54:34;;;;;;;;;32.25;22.50;;;;;6.93;89.61;102626.03;5095684;27;45634;-68
2022/01/20 00:57:01;;;;;;;;;32.75;22.75;;;;;6.92;89.71;102629.50;5095616;27;45491;-68
2022/01/20 00:59:29;;;;;;;;;33.00;20.75;;;;;6.88;90.04;102632.97;5096143;27;45328;-68
2022/01/20 01:01:55;;;;;;;;;27.50;22.50;;;;;6.83;89.96;102617.28;5095429;27;45403;-68
2022/01/20 01:04:20;;;;;;;;;19.50;18.50;;;;;6.80;89.77;102612.94;5095603;27;46581;-68
2022/01/20 01:09:11;;;;;;;;;26.75;17.75;;;;;6.75;89.73;102619.03;5095632;27;45483;-68
2022/01/20 01:11:38;;;;;;;;;23.50;20.75;;;;;6.75;89.93;102642.53;5094695;27;45337;-68
2022/01/20 01:14:04;;;;;;;;;23.50;19.00;;;;;6.72;89.90;102626.84;5096151;27;46250;-68
2022/01/20 01:24:41;;;;;;;;;24.50;19.25;;;;;6.64;90.08;102641.63;5013559;28;45554;-68
2022/01/20 01:27:07;;;;;;;;;24.00;18.75;;;;;6.60;90.06;102643.34;5013793;28;45965;-68
2022/01/20 01:32:20;;;;;;;;;23.25;19.50;;;;;6.58;90.02;102659.88;5013311;28;45352;-68
2022/01/20 01:34:51;;;;;;;;;23.25;15.25;;;;;6.54;89.82;102662.47;5014153;28;46605;-68
2022/01/20 01:39:57;;;;;;;;;27.75;20.00;;;;;6.48;89.92;102662.47;5013405;28;45506;-68
2022/01/20 01:42:29;;;;;;;;;25.50;18.00;;;;;6.46;89.77;102668.53;5016385;28;45492;-68
2022/01/20 01:44:57;;;;;;;;;17.25;15.75;;;;;6.45;90.13;102674.63;5012740;28;46350;-68
2022/01/20 01:47:22;;;;;;;;;21.50;14.50;;;;;6.41;90.31;102671.09;5013613;28;45486;-68
2022/01/20 01:49:47;;;;;;;;;23.00;15.25;;;;;6.39;89.61;102675.47;5013016;28;45436;-68
2022/01/20 01:52:13;;;;;;;;;16.33;13.00;;;;;6.30;89.93;102664.97;5013728;28;47379;-68
2022/01/20 01:54:38;;;;;;;;;16.75;11.25;;;;;6.33;89.94;102685.00;5013425;28;51254;-68
2022/01/20 01:57:09;;;;;;;;;19.00;14.75;;;;;6.35;89.93;102702.41;5093735;27;45385;-68
2022/01/20 01:59:34;;;;;;;;;16.25;13.00;;;;;6.26;90.09;102703.25;5094734;27;45330;-68
2022/01/20 02:01:59;;;;;;;;;14.25;14.00;;;;;6.27;90.10;102719.78;5095104;27;45346;-68
2022/01/20 02:04:25;;;;;;;;;15.00;13.75;;;;;6.22;90.17;102711.91;5096791;27;45435;-68
2022/01/20 02:07:12;;;;;;;;;20.50;12.50;;;;;6.20;89.76;102721.47;5094584;27;45312;-68
2022/01/20 02:18:36;;;;;;;;;19.75;15.25;;;;;6.12;89.79;102727.50;5094403;27;45925;-68
2022/01/20 02:20:39;;;;;;;;;24.50;14.75;;;;;6.00;90.20;102712.59;5094360;27;45573;-68
2022/01/20 02:23:05;;;;;;;;;14.50;12.25;;;;;6.06;89.76;102725.72;5093815;27;45758;-68
2022/01/20 02:25:33;;;;;;;;;16.25;12.50;;;;;6.04;90.09;102730.06;5096035;27;46675;-68
2022/01/20 02:28:01;;;;;;;;;18.50;10.75;;;;;5.99;90.10;102729.13;5093782;27;45895;-67
2022/01/20 02:30:28;;;;;;;;;17.75;16.25;;;;;5.92;90.10;102723.00;5092472;27;45489;-68
2022/01/20 02:32:56;;;;;;;;;14.00;12.50;;;;;5.92;89.93;102722.13;5093759;27;45486;-68
2022/01/20 02:35:24;;;;;;;;;18.00;10.50;;;;;5.88;90.09;102734.25;5094911;27;46817;-68
2022/01/20 02:37:57;;;;;;;;;13.25;9.00;;;;;5.88;89.79;102734.25;5094772;27;45410;-68
2022/01/20 02:44:48;;;;;;;;;13.00;9.25;;;;;5.85;90.33;102731.63;5095083;27;45427;-68
2022/01/20 02:46:02;;;;;;;;;17.50;9.75;;;;;5.80;90.03;102735.94;5093724;27;45602;-68
2022/01/20 02:48:27;;;;;;;;;13.50;10.00;;;;;5.75;90.16;102727.19;5093700;27;45406;-68
2022/01/20 02:50:53;;;;;;;;;15.25;11.25;;;;;5.72;89.93;102720.19;5094171;27;45300;-68
2022/01/20 02:53:18;;;;;;;;;15.50;9.75;;;;;5.72;89.75;102717.56;5093325;27;45525;-68
2022/01/20 02:55:43;;;;;;;;;10.75;10.00;;;;;5.62;90.06;102694.88;5095285;27;45599;-68
2022/01/20 02:58:09;;;;;;;;;7.00;7.00;;;;;5.64;89.99;102707.97;5094162;27;45346;-68
2022/01/20 03:00:35;;;;;;;;;10.00;10.00;;;;;5.66;89.61;102707.09;5091332;27;45570;-68
2022/01/20 03:03:02;;;;;;;;;15.75;11.00;;;;;5.61;89.71;102715.75;5075003;27;45616;-68
2022/01/20 03:05:30;;;;;;;;;12.00;9.00;;;;;5.57;89.81;102711.34;5093927;27;45553;-68
2022/01/20 03:07:56;;;;;;;;;14.50;9.50;;;;;5.54;89.92;102713.94;5094269;27;46118;-68
2022/01/20 03:10:21;;;;;;;;;7.00;6.50;;;;;5.50;89.71;102716.50;5099251;27;45718;-68
2022/01/20 03:12:46;;;;;;;;;14.00;9.67;;;;;5.52;89.43;102720.84;5095517;27;46552;-68
2022/01/20 03:15:12;;;;;;;;;13.00;9.75;;;;;5.47;89.61;102713.84;5092924;27;46524;-68
2022/01/20 03:17:37;;;;;;;;;7.50;7.00;;;;;5.47;89.54;102719.06;5108166;27;46196;-68
2022/01/20 03:20:03;;;;;;;;;11.50;8.00;;;;;5.43;89.51;102732.09;5094318;27;45549;-68
2022/01/20 03:22:28;;;;;;;;;9.25;8.00;;;;;5.32;89.77;102716.31;5095805;27;45582;-68
2022/01/20 03:24:55;;;;;;;;;14.50;8.00;;;;;5.38;89.79;102742.47;5093338;27;46686;-68
2022/01/20 03:27:20;;;;;;;;;11.25;7.50;;;;;5.32;89.60;102739.78;5091839;27;46141;-68
2022/01/20 03:29:46;;;;;;;;;9.25;8.00;;;;;5.31;89.39;102751.06;5093493;27;45746;-68
2022/01/20 03:32:11;;;;;;;;;11.00;8.00;;;;;5.26;89.75;102742.31;5091590;27;45363;-68
2022/01/20 03:34:36;;;;;;;;;7.25;6.00;;;;;5.28;89.66;102744.97;5098767;27;45712;-68
2022/01/20 03:37:03;;;;;;;;;8.50;6.25;;;;;5.23;89.89;102750.13;5093157;27;45482;-68
2022/01/20 03:39:30;;;;;;;;;10.50;6.00;;;;;5.22;89.67;102751.00;5092783;27;45439;-68
2022/01/20 03:41:56;;;;;;;;;9.25;4.00;;;;;5.19;89.13;102757.03;5090945;27;45764;-68
2022/01/20 03:44:21;;;;;;;;;8.50;5.25;;;;;5.13;89.25;102745.66;5093067;27;46282;-68
2022/01/20 03:46:46;;;;;;;;;5.00;5.00;;;;;5.14;89.55;102747.41;5092932;27;45399;-68
2022/01/20 03:49:35;;;;;;;;;9.25;5.00;;;;;5.09;89.11;102741.25;5094437;27;45250;-68
2022/01/20 03:52:01;;;;;;;;;10.50;6.00;;;;;5.10;89.36;102743.88;5091993;27;45554;-68
2022/01/20 03:54:26;;;;;;;;;6.50;5.00;;;;;5.08;89.22;102757.75;5092735;27;45609;-68
2022/01/20 03:56:51;;;;;;;;;5.25;5.25;;;;;5.01;89.65;102750.69;5091124;27;45317;-68
2022/01/20 03:59:17;;;;;;;;;9.25;5.75;;;;;5.00;89.27;102759.38;5093107;27;45375;-68
2022/01/20 04:01:42;;;;;;;;;12.25;5.00;;;;;4.97;89.63;102761.09;5098111;27;45372;-68
2022/01/20 04:04:08;;;;;;;;;7.50;5.25;;;;;4.92;89.59;102759.31;5093748;27;45326;-68
2022/01/20 04:06:33;;;;;;;;;6.75;4.75;;;;;4.91;89.22;102763.63;5093048;27;45453;-68
2022/01/20 04:08:59;;;;;;;;;9.00;5.00;;;;;4.92;89.36;102764.50;5092045;27;45459;-68
2022/01/20 04:11:27;;;;;;;;;4.75;4.75;;;;;4.79;89.39;102750.44;5092813;27;45347;-68
2022/01/20 04:13:53;;;;;;;;;5.50;5.50;;;;;4.85;89.60;102766.13;5093141;27;46634;-68
2022/01/20 04:16:21;;;;;;;;;6.50;4.00;;;;;4.80;89.47;102767.81;5079230;27;45380;-68
2022/01/20 04:18:53;;;;;;;;;5.00;4.50;;;;;4.82;89.40;102783.47;5090807;27;45469;-68
2022/01/20 04:21:25;;;;;;;;;9.50;5.50;;;;;4.75;89.37;102771.22;5087190;27;45253;-68
2022/01/20 04:23:50;;;;;;;;;10.50;5.00;;;;;4.77;89.15;102787.75;5092530;27;45466;-68
2022/01/20 04:26:16;;;;;;;;;6.75;6.75;;;;;4.75;89.63;102798.16;5092543;27;45300;-68
2022/01/20 04:28:41;;;;;;;;;5.00;5.00;;;;;4.71;89.73;102789.41;5094397;27;45312;-68
2022/01/20 04:31:07;;;;;;;;;8.00;4.00;;;;;4.70;89.54;102784.19;5093393;27;45288;-68
2022/01/20 04:33:32;;;;;;;;;5.00;4.75;;;;;4.59;89.22;102757.97;5096062;27;46529;-68
2022/01/20 04:35:59;;;;;;;;;7.75;2.00;;;;;4.67;89.44;102781.53;5092504;27;45332;-68
2022/01/20 04:38:25;;;;;;;;;5.25;3.50;;;;;4.66;89.73;102785.00;5092743;27;45530;-68
2022/01/20 04:40:50;;;;;;;;;11.75;5.75;;;;;4.63;89.18;102779.72;5092994;27;45447;-68
2022/01/20 04:43:15;;;;;;;;;5.75;5.25;;;;;4.55;89.31;102770.94;5094179;27;46373;-68
2022/01/20 04:45:48;;;;;;;;;8.75;5.00;;;;;4.59;89.38;102794.41;5092305;27;45443;-68
2022/01/20 04:48:24;;;;;;;;;5.00;5.00;;;;;4.56;89.68;102793.53;5094345;27;47412;-68
2022/01/20 04:59:02;;;;;;;;;7.00;4.50;;;;;4.53;89.01;102794.34;5095772;27;45372;-70
2022/01/20 05:01:29;;;;;;;;;9.00;4.50;;;;;4.51;89.38;102800.38;5099781;27;45369;-71
2022/01/20 05:03:56;;;;;;;;;11.25;5.25;;;;;4.54;89.50;102787.41;5105064;27;46337;-71
2022/01/20 05:06:21;;;;;;;;;6.75;4.25;;;;;4.53;89.15;102786.53;5102864;27;45419;-70
2022/01/20 05:08:48;;;;;;;;;8.00;5.00;;;;;4.43;89.11;102764.69;5094672;27;45525;-71
2022/01/20 05:11:15;;;;;;;;;6.25;4.00;;;;;4.53;89.71;102777.84;5101963;27;45570;-71
2022/01/20 05:13:40;;;;;;;;;8.50;5.75;;;;;4.52;89.04;102778.69;5114113;27;45586;-71
2022/01/20 05:16:08;;;;;;;;;8.75;7.00;;;;;4.49;88.95;102784.75;5097891;27;45383;-71
2022/01/20 05:18:33;;;;;;;;;4.75;4.00;;;;;4.51;89.13;102788.25;5105447;27;45640;-70
2022/01/20 05:20:58;;;;;;;;;5.25;3.50;;;;;4.48;89.03;102782.97;5093716;27;45315;-71
2022/01/20 05:23:24;;;;;;;;;6.75;4.75;;;;;4.50;89.54;102788.22;5093264;27;46459;-71
2022/01/20 05:25:49;;;;;;;;;5.00;5.00;;;;;4.48;89.03;102795.13;5094974;27;45539;-70
2022/01/20 05:28:15;;;;;;;;;5.25;5.25;;;;;4.46;89.51;102792.50;5096045;27;45356;-71
2022/01/20 05:30:40;;;;;;;;;10.25;4.00;;;;;4.47;89.35;102794.25;5096263;27;45395;-71
2022/01/20 05:33:07;;;;;;;;;6.50;4.25;;;;;4.46;89.57;102795.09;5102240;27;47300;-71
2022/01/20 05:35:32;;;;;;;;;4.00;4.00;;;;;4.44;89.09;102789.00;5087694;27;45902;-71
2022/01/20 05:37:58;;;;;;;;;6.25;5.25;;;;;4.42;89.54;102786.38;5095187;27;45541;-70
2022/01/20 05:40:23;;;;;;;;;7.75;4.50;;;;;4.46;89.47;102805.53;5096036;27;45380;-71
2022/01/20 05:42:49;;;;;;;;;5.50;4.00;;;;;4.42;89.49;102806.31;5094783;27;45579;-70
2022/01/20 05:45:14;;;;;;;;;5.75;4.50;;;;;4.41;89.42;102815.88;5095275;27;45504;-70
2022/01/20 05:47:44;;;;;;;;;1.50;1.00;;;;;4.39;89.37;102816.72;5095573;27;45534;-70
2022/01/20 05:50:12;;;;;;;;;5.25;5.00;;;;;4.41;89.41;102826.28;5095607;27;45382;-72
2022/01/20 05:52:41;;;;;;;;;4.00;2.00;;;;;4.34;89.24;102816.63;5107169;27;45378;-70
2022/01/20 05:55:08;;;;;;;;;4.50;4.50;;;;;4.35;89.59;102820.97;5102388;27;45777;-70
2022/01/20 05:57:34;;;;;;;;;6.75;4.75;;;;;4.34;89.47;102821.84;5094732;27;45732;-70
2022/01/20 05:59:59;;;;;;;;;5.25;4.00;;;;;4.34;89.44;102823.56;5104075;27;45336;-70
2022/01/20 06:02:34;;;;;;;;;0.75;0.50;;;;;4.30;89.22;102822.63;5095930;27;46512;-70
2022/01/20 06:05:00;;;;;;;;;6.50;2.00;;;;;4.32;89.27;102827.84;5096016;27;45649;-70
2022/01/20 06:07:26;;;;;;;;;5.00;5.00;;;;;4.31;89.08;102834.78;5103831;27;45443;-70
2022/01/20 06:09:51;;;;;;;;;9.00;5.00;;;;;4.28;89.15;102833.84;5102343;27;45503;-70
2022/01/20 06:12:16;;;;;;;;;5.25;4.00;;;;;4.28;88.75;102837.34;5097425;27;45624;-70
2022/01/20 06:14:42;;;;;;;;;6.33;3.33;;;;;4.27;88.99;102837.31;5096892;27;46934;-70
2022/01/20 06:17:07;;;;;;;;;7.00;3.33;;;;;4.27;89.13;102832.09;5099494;27;51289;-70
2022/01/20 06:19:32;;;;;;;;;5.50;4.00;;;;;4.26;88.90;102831.22;5095443;27;45375;-70
2022/01/20 06:21:58;;;;;;;;;6.75;5.25;;;;;4.27;88.93;102830.38;5102010;27;45560;-70
2022/01/20 06:24:23;;;;;;;;;4.67;4.67;;;;;4.23;88.93;102835.50;5104799;27;45533;-69
2022/01/20 06:26:48;;;;;;;;;4.67;2.00;;;;;4.21;89.01;102837.22;5109291;27;50554;-70
2022/01/20 06:29:14;;;;;;;;;6.75;4.00;;;;;4.23;89.04;102839.00;5089394;27;45522;-69
2022/01/20 06:31:39;;;;;;;;;6.50;4.00;;;;;4.18;88.54;102825.91;5094878;27;46397;-70
2022/01/20 06:34:04;;;;;;;;;6.75;4.50;;;;;4.21;88.34;102842.41;5094319;27;45352;-69
2022/01/20 06:36:30;;;;;;;;;8.00;4.50;;;;;4.19;88.70;102840.66;5093757;27;45481;-70
2022/01/20 06:38:55;;;;;;;;;11.25;4.00;;;;;4.15;88.66;102840.59;5077315;27;45508;-70
2022/01/20 06:41:20;;;;;;;;;4.75;4.75;;;;;4.15;88.45;102854.47;5094489;27;45578;-70
2022/01/20 06:43:46;;;;;;;;;4.50;4.50;;;;;4.11;88.54;102846.56;5095644;27;45494;-70
2022/01/20 06:46:12;;;;;;;;;6.00;6.00;;;;;4.09;88.69;102845.69;5095064;27;45264;-70
2022/01/20 06:48:37;;;;;;;;;4.00;4.00;;;;;4.07;89.17;102852.56;5094157;27;45496;-70
2022/01/20 06:51:02;;;;;;;;;5.00;3.00;;;;;4.09;89.08;102849.16;5093576;27;45634;-70
2022/01/20 06:53:28;;;;;;;;;8.25;4.00;;;;;4.09;88.82;102862.16;5094418;27;45443;-70
2022/01/20 06:55:53;;;;;;;;;4.25;4.00;;;;;4.10;89.30;102871.72;5094930;27;45562;-69
2022/01/20 06:58:21;;;;;;;;;10.75;4.00;;;;;4.09;88.74;102869.09;5093956;27;45372;-70
2022/01/20 07:00:46;;;;;;;;;7.25;4.25;;;;;4.09;89.02;102876.91;5093858;27;46351;-70
2022/01/20 07:03:12;;;;;;;;;11.00;8.00;;;;;4.09;89.42;102880.38;5091564;27;45604;-70
2022/01/20 07:05:37;;;;;;;;;14.33;8.33;;;;;4.10;89.29;102886.47;5093582;27;45364;-70
2022/01/20 07:08:02;;;;;;;;;10.00;8.50;;;;;4.13;89.02;102902.16;5094118;27;45335;-70
2022/01/20 07:10:28;;;;;;;;;18.00;11.50;;;;;4.11;89.32;102904.69;5094452;27;46637;-70
2022/01/20 07:12:53;;;;;;;;;8.67;8.67;;;;;4.13;89.44;102909.94;5110110;27;50270;-70
2022/01/20 07:15:19;;;;;;;;;21.50;16.25;;;;;4.11;89.34;102916.84;5100181;27;45327;-70
2022/01/20 07:17:44;;;;;;;;;22.50;16.75;;;;;4.14;88.99;102922.13;5093705;27;45499;-70
2022/01/20 07:20:11;;;;;;;;;25.00;19.00;;;;;4.15;89.29;102929.94;5093262;27;45331;-71
2022/01/20 07:22:37;;;;;;;;;62.25;46.00;;;;;4.14;88.89;102932.53;5108313;27;45924;-70
2022/01/20 07:25:04;;;;;;;;;76.33;56.33;;;;;4.13;88.98;102928.16;5095988;27;45512;-70
2022/01/20 07:27:29;;;;;;;;;41.25;34.00;;;;;4.15;89.06;102936.88;5079055;27;45574;-70
2022/01/20 07:29:55;;;;;;;;;42.75;40.50;;;;;4.17;89.03;102940.38;5093233;27;46916;-70
2022/01/20 07:32:21;;;;;;;;;46.75;41.00;;;;;4.18;89.26;102937.81;5103767;27;48989;-71
2022/01/20 07:34:46;;;;;;;;;39.00;33.25;;;;;4.19;89.02;102947.38;5094923;27;45332;-73
2022/01/20 07:37:11;;;;;;;;;37.25;23.75;;;;;4.17;89.35;102945.56;5105502;27;45331;-70
2022/01/20 07:39:37;;;;;;;;;57.25;48.75;;;;;4.22;89.27;102943.06;5096882;27;46122;-70
2022/01/20 07:42:04;;;;;;;;;27.50;21.75;;;;;4.23;89.04;102950.91;5094182;27;45509;-70
2022/01/20 07:44:29;;;;;;;;;25.00;23.50;;;;;4.29;89.35;102951.03;5093286;27;45389;-70
2022/01/20 07:46:54;;;;;;;;;22.00;19.67;;;;;4.31;89.36;102938.91;5100550;27;45963;-70
2022/01/20 07:49:20;;;;;;;;;29.67;27.00;;;;;4.37;89.73;102944.22;5094641;27;45522;-70
2022/01/20 07:51:45;;;;;;;;;26.00;22.75;;;;;4.29;89.68;102924.13;5093053;27;45549;-70
2022/01/20 07:54:11;;;;;;;;;26.25;22.00;;;;;4.44;89.45;102945.22;5099586;27;45604;-70
2022/01/20 07:56:36;;;;;;;;;31.50;22.75;;;;;4.54;89.55;102946.22;5090636;27;45432;-70
2022/01/20 07:59:03;;;;;;;;;25.25;22.25;;;;;4.61;89.43;102942.91;5083441;27;45949;-70
2022/01/20 08:01:28;;;;;;;;;25.50;21.50;;;;;4.65;89.55;102934.31;5086592;27;45994;-70
2022/01/20 08:03:54;;;;;;;;;23.25;17.75;;;;;4.72;89.48;102950.03;5086125;27;45322;-70
2022/01/20 08:06:22;;;;;;;;;37.75;33.50;;;;;4.78;89.23;102948.38;5088659;27;45566;-70
2022/01/20 08:08:50;;;;;;;;;31.25;27.75;;;;;4.85;89.09;102943.28;5087875;27;45487;-70
2022/01/20 08:11:15;;;;;;;;;24.00;19.50;;;;;4.95;89.10;102950.41;5084450;27;45877;-70
2022/01/20 08:13:41;;;;;;;;;13.00;12.25;;;;;5.06;89.12;102937.53;5091085;27;45440;-70
2022/01/20 08:16:06;;;;;;;;;18.25;13.50;;;;;5.17;88.98;102936.00;5099267;27;45614;-70
2022/01/20 08:18:31;;;;;;;;;37.75;26.25;;;;;5.28;88.84;102935.28;5084046;27;46312;-70
2022/01/20 08:20:57;;;;;;;;;47.50;36.50;;;;;5.49;88.80;102946.88;5089512;27;45306;-70
2022/01/20 08:23:22;;;;;;;;;22.00;15.50;;;;;5.76;88.86;102948.06;5094214;27;45473;-70
2022/01/20 08:25:48;;;;;;;;;16.67;13.00;;;;;6.06;88.63;102949.34;5093484;27;50126;-70
2022/01/20 08:28:13;;;;;;;;;16.00;12.00;;;;;6.28;88.02;102948.69;5092954;27;45519;-70
2022/01/20 08:30:39;;;;;;;;;10.50;10.25;;;;;6.45;87.75;102954.09;5070642;27;45609;-70
2022/01/20 08:33:05;;;;;;;;;22.50;16.75;;;;;6.59;87.02;102949.00;5083107;27;45572;-70
2022/01/20 08:35:32;;;;;;;;;14.00;14.00;;;;;6.68;86.62;102946.44;5095842;27;45660;-70
2022/01/20 08:37:59;;;;;;;;;9.25;5.25;;;;;6.79;86.47;102944.81;5080509;27;45714;-70
2022/01/20 08:40:24;;;;;;;;;20.25;18.00;;;;;6.86;86.36;102949.22;5092339;27;45482;-70
2022/01/20 08:42:51;;;;;;;;;18.25;15.25;;;;;6.93;85.98;102956.25;5088558;27;45303;-70
2022/01/20 08:45:19;;;;;;;;;22.75;21.00;;;;;6.98;85.82;102961.50;5083016;27;45487;-70
2022/01/20 08:47:44;;;;;;;;;38.50;32.00;;;;;7.07;85.37;102962.44;5084249;27;47196;-70
2022/01/20 08:50:11;;;;;;;;;50.50;42.50;;;;;7.18;85.44;102966.88;5086586;27;45566;-69
2022/01/20 08:52:37;;;;;;;;;77.50;54.50;;;;;7.26;85.19;102965.22;5106399;27;45529;-70
2022/01/20 08:55:04;;;;;;;;;42.75;35.50;;;;;7.25;84.89;102968.66;5083628;27;45349;-72
2022/01/20 08:57:30;;;;;;;;;25.25;16.50;;;;;7.32;84.69;102987.03;5085917;27;47794;-71
2022/01/20 08:59:56;;;;;;;;;20.50;16.50;;;;;7.36;84.10;102976.59;5089363;27;45496;-72
2022/01/20 09:02:22;;;;;;;;;13.50;9.50;;;;;7.40;84.49;102963.53;5079919;27;45375;-71
2022/01/20 09:04:48;;;;;;;;;13.75;10.50;;;;;7.45;84.19;102964.44;5105046;27;45484;-71
2022/01/20 09:07:13;;;;;;;;;21.00;14.50;;;;;7.55;83.98;102968.84;5079208;27;47351;-70
2022/01/20 09:09:42;;;;;;;;;10.75;9.00;;;;;7.64;83.94;102975.88;5092209;27;45493;-70
2022/01/20 09:17:25;;;;;;;;;16.75;13.00;;;;;7.97;83.13;102966.41;5080462;27;45838;-70
2022/01/20 09:19:50;;;;;;;;;22.00;15.50;;;;;8.07;83.04;102976.94;5079804;27;45373;-70
2022/01/20 09:22:16;;;;;;;;;29.75;24.50;;;;;8.17;82.06;102972.59;5081694;27;45360;-70
2022/01/20 09:24:44;;;;;;;;;67.00;52.50;;;;;8.24;82.26;102983.97;5081655;27;45391;-71
2022/01/20 09:27:10;;;;;;;;;59.50;46.50;;;;;8.41;82.19;102997.16;5083834;27;46191;-70
2022/01/20 09:29:36;;;;;;;;;58.00;45.75;;;;;8.48;82.02;102997.16;5093139;27;45548;-70
2022/01/20 09:32:04;;;;;;;;;39.75;32.75;;;;;8.49;81.37;102998.91;5095982;27;46050;-70
2022/01/20 09:34:29;;;;;;;;;46.50;42.50;;;;;8.55;81.28;102998.03;5091161;27;45577;-70
2022/01/20 09:36:55;;;;;;;;;63.00;52.00;;;;;8.58;81.40;103004.16;5097765;27;47128;-71
2022/01/20 09:39:20;;;;;;;;;36.00;28.75;;;;;8.65;81.07;103012.91;5095163;27;45455;-71
2022/01/20 09:41:46;;;;;;;;;57.25;45.75;;;;;8.70;81.15;103010.28;5092771;27;45494;-71
2022/01/20 09:44:11;;;;;;;;;22.00;14.75;;;;;8.75;80.97;103008.56;5094670;27;45461;-71
2022/01/20 09:46:38;;;;;;;;;30.25;28.50;;;;;8.86;80.92;103015.56;5087130;27;47493;-71
2022/01/20 09:49:03;;;;;;;;;61.50;49.25;;;;;8.85;80.11;102998.06;5094078;27;45441;-71
2022/01/20 09:51:29;;;;;;;;;59.00;48.50;;;;;9.04;80.52;103006.81;5094275;27;45478;-71
2022/01/20 09:53:54;;;;;;;;;29.00;28.00;;;;;9.22;80.10;103008.56;5094238;27;45256;-71
2022/01/20 09:56:20;;;;;;;;;56.75;43.50;;;;;9.32;79.66;102991.06;5087134;27;45611;-71
2022/01/20 09:58:45;;;;;;;;;44.00;35.00;;;;;9.56;79.48;103000.63;5067644;27;45668;-71
2022/01/20 10:01:11;;;;;;;;;40.00;35.00;;;;;9.69;78.81;102994.47;5083114;27;45527;-71
2022/01/20 10:03:37;;;;;;;;;56.25;44.00;;;;;9.82;78.91;102997.94;5087750;27;45273;-71
2022/01/20 10:06:03;;;;;;;;;49.50;41.25;;;;;9.90;78.29;102990.88;5098550;27;48156;-71
2022/01/20 10:08:30;;;;;;;;;33.50;31.75;;;;;10.04;78.41;102991.72;5091210;27;45383;-71
2022/01/20 10:11:06;;;;;;;;;13.25;12.25;;;;;10.12;77.54;103002.16;5084037;27;45803;-71
2022/01/20 10:13:35;;;;;;;;;17.00;15.25;;;;;10.31;77.52;103011.75;5085023;27;45544;-72
2022/01/20 10:16:01;;;;;;;;;24.50;18.00;;;;;10.55;77.30;103015.13;5080821;27;46422;-71
2022/01/20 10:18:28;;;;;;;;;23.50;19.25;;;;;10.91;76.77;103025.38;5082852;27;45491;-71
2022/01/20 10:21:00;;;;;;;;;28.50;23.50;;;;;10.94;75.77;103019.22;5083044;27;45775;-71
2022/01/20 10:23:30;;;;;;;;;31.25;26.50;;;;;11.03;75.64;103021.78;5078928;27;45509;-71
2022/01/20 10:26:23;;;;;;;;;69.75;51.00;;;;;11.06;75.44;103034.88;5108426;27;47521;-71
2022/01/20 10:28:50;;;;;;;;;26.50;25.25;;;;;11.22;74.69;103046.16;5085167;27;45471;-71
2022/01/20 10:31:16;;;;;;;;;23.25;17.50;;;;;11.26;74.12;103045.25;5086448;27;45601;-71
2022/01/20 10:33:42;;;;;;;;;37.50;33.25;;;;;11.21;74.21;103047.91;5090721;27;45674;-71
2022/01/20 10:36:10;;;;;;;;;22.75;18.75;;;;;11.21;73.80;103050.53;5084986;27;45413;-71
2022/01/20 10:38:35;;;;;;;;;25.00;21.00;;;;;11.20;73.95;103047.94;5084601;27;45345;-71
2022/01/20 10:41:02;;;;;;;;;16.75;13.75;;;;;11.28;73.54;103048.75;5094548;27;45483;-71
2022/01/20 10:43:31;;;;;;;;;22.75;16.75;;;;;11.30;73.12;103056.63;5089981;27;45469;-71
2022/01/20 10:46:13;;;;;;;;;22.50;14.00;;;;;11.36;73.06;103049.53;5081618;27;45723;-71
2022/01/20 10:48:40;;;;;;;;;13.50;13.50;;;;;11.38;73.06;103046.88;5080992;27;45614;-71
2022/01/20 10:51:19;;;;;;;;;17.75;14.25;;;;;11.43;72.71;103052.97;5081041;27;45367;-71
2022/01/20 10:53:44;;;;;;;;;29.00;24.25;;;;;11.42;72.50;103041.59;5075610;27;45528;-71
2022/01/20 10:56:10;;;;;;;;;18.50;16.25;;;;;11.45;72.25;103053.84;5088217;27;46622;-71
2022/01/20 10:58:35;;;;;;;;;25.50;22.25;;;;;11.47;72.23;103045.03;5077025;27;45494;-74
2022/01/20 11:01:00;;;;;;;;;19.50;9.25;;;;;11.38;71.15;103039.88;5086858;27;45492;-73
2022/01/20 11:03:27;;;;;;;;;13.00;9.00;;;;;11.31;71.41;103043.44;5086361;27;45419;-71
2022/01/20 11:05:54;;;;;;;;;16.50;15.50;;;;;11.21;72.15;103052.31;5079082;27;48646;-71
2022/01/20 11:08:20;;;;;;;;;15.00;10.25;;;;;10.96;71.15;103052.53;5082152;27;45774;-74
2022/01/20 11:10:46;;;;;;;;;12.50;11.75;;;;;10.67;71.23;103047.47;5099062;27;45447;-71
2022/01/20 11:13:13;;;;;;;;;21.25;16.50;;;;;10.37;71.61;103048.50;5091183;27;45485;-71
2022/01/20 11:15:43;;;;;;;;;11.50;8.00;;;;;10.28;71.85;103050.28;5083840;27;46404;-72
2022/01/20 11:18:10;;;;;;;;;8.00;7.25;;;;;10.14;71.93;103052.97;5058509;28;45562;-72
2022/01/20 11:20:44;;;;;;;;;12.75;9.00;;;;;10.22;72.02;103047.66;5081785;27;45601;-71
2022/01/20 11:23:10;;;;;;;;;15.75;13.75;;;;;10.32;72.43;103039.75;5090115;27;45523;-71
2022/01/20 11:25:39;;;;;;;;;14.00;10.25;;;;;10.61;72.40;103039.63;5079393;27;45678;-71
2022/01/20 11:28:08;;;;;;;;;16.25;12.25;;;;;10.76;72.16;103041.28;5083059;27;46042;-72
2022/01/20 11:30:35;;;;;;;;;40.50;30.50;;;;;10.91;71.61;103035.00;5077823;27;45584;-71
2022/01/20 11:33:08;;;;;;;;;11.50;8.25;;;;;11.06;71.35;103034.00;5093441;27;45553;-71
2022/01/20 11:35:45;;;;;;;;;14.75;12.75;;;;;11.22;71.74;103033.00;5088949;27;45931;-71
2022/01/20 11:38:14;;;;;;;;;31.25;23.50;;;;;11.38;71.05;103024.09;5076801;27;45416;-71
2022/01/20 11:40:58;;;;;;;;;16.75;14.50;;;;;11.49;70.31;103010.81;5101232;27;45505;-71
2022/01/20 11:43:33;;;;;;;;;35.50;28.75;;;;;11.77;70.46;103029.81;5086386;27;45394;-71
2022/01/20 11:46:27;;;;;;;;;17.50;15.00;;;;;11.94;69.52;103033.16;5088926;27;46093;-71
2022/01/20 11:48:57;;;;;;;;;15.25;12.50;;;;;12.02;69.53;103025.16;5081567;27;46013;-71
2022/01/20 11:51:43;;;;;;;;;7.75;7.75;;;;;12.07;69.86;103025.13;5071689;28;45527;-71
2022/01/20 11:54:09;;;;;;;;;14.75;11.25;;;;;12.12;69.19;103026.78;5080809;27;45805;-71
2022/01/20 11:56:41;;;;;;;;;10.00;10.00;;;;;12.17;67.70;103034.66;5083993;27;46307;-71
2022/01/20 11:59:11;;;;;;;;;14.00;9.00;;;;;12.12;69.08;103025.94;5085309;27;45938;-71
2022/01/20 12:01:48;;;;;;;;;15.25;12.25;;;;;12.05;67.63;103038.28;5095108;27;45250;-71
2022/01/20 12:04:15;;;;;;;;;28.50;28.00;;;;;12.04;67.46;103039.19;5085112;27;45408;-71
2022/01/20 12:06:44;;;;;;;;;37.00;31.50;;;;;11.92;67.51;103028.81;5083472;27;45556;-71
2022/01/20 12:09:10;;;;;;;;;12.25;10.25;;;;;11.66;66.97;103024.66;5066106;27;45646;-71
2022/01/20 12:11:41;;;;;;;;;13.00;7.25;;;;;11.55;66.66;103037.09;5100015;27;45538;-71
2022/01/20 12:14:08;;;;;;;;;9.00;3.00;;;;;11.50;66.98;103031.00;5076710;27;45324;-71
2022/01/20 12:16:35;;;;;;;;;8.75;7.00;;;;;11.50;67.38;103034.50;5090844;27;45538;-71
2022/01/20 12:19:01;;;;;;;;;15.75;14.50;;;;;11.46;67.11;103034.53;5089563;27;45467;-71
2022/01/20 12:21:30;;;;;;;;;7.50;7.50;;;;;11.34;67.43;103042.56;5089454;27;45619;-71